Time;durP1;ratioP1;P1;durP2;ratioP2;P2;SDS_P1;SDS_P2;PMS_P1;PMS_P2;Temp;Humidity;BMP_temperature;BMP_pressure;BME280_temperature;BME280_humidity;BME280_pressure;Samples;Min_cycle;Max_cycle;Signal;HPM_P1;HPM_P2
2021/01/24 00:00:43;;;;;;;;;;;21.50;27.50;;;;;;482761;247;1237;-68
2021/01/24 00:02:44;;;;;;;;;;;21.50;27.60;;;;;;482737;247;1140;-68
2021/01/24 00:04:45;;;;;;;;;;;21.50;27.50;;;;;;482743;247;1035;-68
2021/01/24 00:06:46;;;;;;;;;;;21.60;27.60;;;;;;482728;245;1340;-68
2021/01/24 00:08:48;;;;;;;;;;;21.60;27.50;;;;;;482687;247;1201;-68
2021/01/24 00:10:49;;;;;;;;;;;21.60;27.50;;;;;;482608;247;2185;-68
2021/01/24 00:12:50;;;;;;;;;;;21.60;27.50;;;;;;482692;247;1038;-68
2021/01/24 00:14:51;;;;;;;;;;;21.60;27.50;;;;;;482684;247;1114;-68
2021/01/24 00:16:53;;;;;;;;;;;21.60;27.50;;;;;;482683;247;1112;-68
2021/01/24 00:18:54;;;;;;;;;;;21.50;27.50;;;;;;482715;247;979;-68
2021/01/24 00:20:55;;;;;;;;;;;21.50;27.50;;;;;;482705;247;1135;-68
2021/01/24 00:22:57;;;;;;;;;;;21.50;27.50;;;;;;482811;247;1336;-68
2021/01/24 00:24:58;;;;;;;;;;;21.50;27.50;;;;;;482755;247;1766;-69
2021/01/24 00:26:59;;;;;;;;;;;21.50;27.60;;;;;;482771;247;1143;-68
2021/01/24 00:29:00;;;;;;;;;;;21.50;27.50;;;;;;482695;247;1173;-68
2021/01/24 00:31:02;;;;;;;;;;;21.50;27.50;;;;;;482690;247;2249;-68
2021/01/24 00:33:03;;;;;;;;;;;21.50;27.50;;;;;;482748;247;1112;-68
2021/01/24 00:35:04;;;;;;;;;;;21.50;27.50;;;;;;482678;247;1192;-68
2021/01/24 00:37:05;;;;;;;;;;;21.60;27.50;;;;;;482697;247;1164;-69
2021/01/24 00:39:07;;;;;;;;;;;21.60;27.50;;;;;;482724;247;1259;-68
2021/01/24 00:41:08;;;;;;;;;;;21.60;27.50;;;;;;482664;247;1211;-68
2021/01/24 00:43:09;;;;;;;;;;;21.60;27.50;;;;;;482679;247;1137;-68
2021/01/24 00:45:11;;;;;;;;;;;21.60;27.50;;;;;;482749;247;952;-68
2021/01/24 00:47:13;;;;;;;;;;;21.50;27.50;;;;;;482648;247;1145;-68
2021/01/24 00:49:13;;;;;;;;;;;21.60;27.60;;;;;;482656;247;2181;-68
2021/01/24 00:51:14;;;;;;;;;;;21.50;27.50;;;;;;482746;247;1175;-68
2021/01/24 00:53:16;;;;;;;;;;;21.50;27.50;;;;;;482759;247;1029;-68
2021/01/24 00:55:17;;;;;;;;;;;21.50;27.60;;;;;;482728;247;1203;-68
2021/01/24 00:57:18;;;;;;;;;;;21.50;27.60;;;;;;482786;247;1053;-68
2021/01/24 00:59:20;;;;;;;;;;;21.50;27.60;;;;;;482740;247;1182;-68
2021/01/24 01:01:21;;;;;;;;;;;21.50;27.60;;;;;;482791;247;958;-68
2021/01/24 01:03:22;;;;;;;;;;;21.50;27.60;;;;;;482759;247;1126;-68
2021/01/24 01:05:23;;;;;;;;;;;21.50;27.60;;;;;;482731;247;1181;-69
2021/01/24 01:07:25;;;;;;;;;;;21.60;27.60;;;;;;482698;247;1233;-68
2021/01/24 01:09:26;;;;;;;;;;;21.60;27.60;;;;;;482766;247;2165;-69
2021/01/24 01:11:27;;;;;;;;;;;21.60;27.70;;;;;;482813;247;973;-68
2021/01/24 01:13:29;;;;;;;;;;;21.60;27.70;;;;;;482693;244;1242;-68
2021/01/24 01:15:30;;;;;;;;;;;21.60;27.70;;;;;;482731;247;1206;-68
2021/01/24 01:17:31;;;;;;;;;;;21.60;27.70;;;;;;482752;247;1234;-68
2021/01/24 01:19:32;;;;;;;;;;;21.60;27.70;;;;;;482818;247;1120;-68
2021/01/24 01:21:34;;;;;;;;;;;21.60;27.80;;;;;;482768;247;1111;-69
2021/01/24 01:23:35;;;;;;;;;;;21.50;27.70;;;;;;482764;247;995;-68
2021/01/24 01:25:36;;;;;;;;;;;21.50;27.80;;;;;;482758;247;1220;-68
2021/01/24 01:27:38;;;;;;;;;;;21.50;27.80;;;;;;482703;247;985;-68
2021/01/24 01:29:39;;;;;;;;;;;21.50;27.80;;;;;;482782;247;2134;-69
2021/01/24 01:31:40;;;;;;;;;;;21.50;27.80;;;;;;482739;247;964;-68
2021/01/24 01:33:41;;;;;;;;;;;21.50;27.80;;;;;;482716;247;973;-68
2021/01/24 01:35:43;;;;;;;;;;;21.50;27.90;;;;;;482711;247;956;-68
2021/01/24 01:37:44;;;;;;;;;;;21.60;27.90;;;;;;482690;247;1137;-68
2021/01/24 01:39:45;;;;;;;;;;;21.60;27.80;;;;;;482754;247;1153;-68
2021/01/24 01:41:46;;;;;;;;;;;21.60;27.80;;;;;;482703;247;1295;-68
2021/01/24 01:43:48;;;;;;;;;;;21.60;27.80;;;;;;482746;247;1005;-68
2021/01/24 01:45:49;;;;;;;;;;;21.60;27.80;;;;;;482747;247;979;-68
2021/01/24 01:47:50;;;;;;;;;;;21.60;27.80;;;;;;482753;247;1312;-68
2021/01/24 01:49:52;;;;;;;;;;;21.70;27.80;;;;;;482773;247;2141;-68
2021/01/24 01:51:53;;;;;;;;;;;21.70;27.70;;;;;;482754;247;1226;-69
2021/01/24 01:53:54;;;;;;;;;;;21.60;27.80;;;;;;482778;247;951;-68
2021/01/24 01:55:55;;;;;;;;;;;21.60;27.80;;;;;;482723;247;1190;-68
2021/01/24 01:57:57;;;;;;;;;;;21.60;27.80;;;;;;482756;247;1016;-69
2021/01/24 01:59:58;;;;;;;;;;;21.60;27.80;;;;;;482701;247;991;-68
2021/01/24 02:01:59;;;;;;;;;;;21.60;27.80;;;;;;482630;247;1331;-68
2021/01/24 02:04:00;;;;;;;;;;;21.60;27.80;;;;;;482717;247;1054;-68
2021/01/24 02:06:02;;;;;;;;;;;21.60;27.80;;;;;;482720;247;1058;-68
2021/01/24 02:08:03;;;;;;;;;;;21.60;27.70;;;;;;482715;247;991;-68
2021/01/24 02:10:04;;;;;;;;;;;21.60;27.70;;;;;;482684;247;2201;-68
2021/01/24 02:12:06;;;;;;;;;;;21.70;27.70;;;;;;482685;247;1098;-68
2021/01/24 02:14:07;;;;;;;;;;;21.70;27.60;;;;;;482728;247;960;-68
2021/01/24 02:16:08;;;;;;;;;;;21.70;27.60;;;;;;482744;247;1053;-69
2021/01/24 02:18:10;;;;;;;;;;;21.70;27.60;;;;;;482709;247;1149;-68
2021/01/24 02:20:11;;;;;;;;;;;21.70;27.70;;;;;;482726;247;1136;-69
2021/01/24 02:22:12;;;;;;;;;;;21.60;27.60;;;;;;482729;247;1062;-68
2021/01/24 02:24:13;;;;;;;;;;;21.60;27.70;;;;;;482739;247;945;-68
2021/01/24 02:26:15;;;;;;;;;;;21.60;27.70;;;;;;482720;247;1179;-68
2021/01/24 02:28:16;;;;;;;;;;;21.60;27.70;;;;;;482682;247;1123;-68
2021/01/24 02:30:17;;;;;;;;;;;21.60;27.70;;;;;;482648;247;2208;-68
2021/01/24 02:32:18;;;;;;;;;;;21.60;27.70;;;;;;482714;247;1094;-68
2021/01/24 02:34:20;;;;;;;;;;;21.60;27.60;;;;;;482766;247;1202;-68
2021/01/24 02:36:21;;;;;;;;;;;21.60;27.60;;;;;;482741;247;1236;-68
2021/01/24 02:38:22;;;;;;;;;;;21.60;27.60;;;;;;482754;247;1214;-68
2021/01/24 02:40:23;;;;;;;;;;;21.60;27.50;;;;;;482720;247;1245;-69
2021/01/24 02:42:25;;;;;;;;;;;21.70;27.50;;;;;;482742;247;1083;-68
2021/01/24 02:44:26;;;;;;;;;;;21.70;27.50;;;;;;482699;247;1233;-68
2021/01/24 02:46:27;;;;;;;;;;;21.70;27.50;;;;;;482733;247;1130;-68
2021/01/24 02:48:29;;;;;;;;;;;21.70;27.50;;;;;;482678;247;1184;-69
2021/01/24 02:50:30;;;;;;;;;;;21.70;27.50;;;;;;482664;247;2185;-68
2021/01/24 02:52:31;;;;;;;;;;;21.70;27.40;;;;;;482655;247;1110;-68
2021/01/24 02:54:32;;;;;;;;;;;21.70;27.40;;;;;;482744;247;1326;-68
2021/01/24 02:56:34;;;;;;;;;;;21.70;27.40;;;;;;482776;247;1231;-68
2021/01/24 02:58:35;;;;;;;;;;;21.60;27.40;;;;;;482779;247;1108;-68
2021/01/24 03:00:37;;;;;;;;;;;21.70;27.40;;;;;;482728;247;1036;-68
2021/01/24 03:02:38;;;;;;;;;;;21.70;27.40;;;;;;482763;247;1201;-68
2021/01/24 03:04:39;;;;;;;;;;;21.70;27.40;;;;;;482686;247;1101;-68
2021/01/24 03:06:40;;;;;;;;;;;21.70;27.40;;;;;;482691;244;1083;-68
2021/01/24 03:08:42;;;;;;;;;;;21.80;27.30;;;;;;482693;247;1156;-68
2021/01/24 03:10:43;;;;;;;;;;;21.80;27.30;;;;;;482645;247;2189;-69
2021/01/24 03:12:44;;;;;;;;;;;21.80;27.30;;;;;;482628;247;1217;-69
2021/01/24 03:14:46;;;;;;;;;;;21.70;27.20;;;;;;482711;247;1064;-68
2021/01/24 03:16:47;;;;;;;;;;;21.80;27.30;;;;;;482685;247;1231;-68
2021/01/24 03:18:48;;;;;;;;;;;21.80;27.20;;;;;;482729;247;977;-68
2021/01/24 03:20:49;;;;;;;;;;;21.70;27.20;;;;;;482770;247;1163;-68
2021/01/24 03:22:51;;;;;;;;;;;21.70;27.20;;;;;;482736;247;1307;-68
2021/01/24 03:24:52;;;;;;;;;;;21.70;27.20;;;;;;482691;247;993;-68
2021/01/24 03:26:54;;;;;;;;;;;21.70;27.30;;;;;;482666;247;1169;-69
2021/01/24 03:28:55;;;;;;;;;;;21.70;27.20;;;;;;482727;247;925;-68
2021/01/24 03:30:56;;;;;;;;;;;21.70;27.20;;;;;;482700;247;2156;-68
2021/01/24 03:32:57;;;;;;;;;;;21.70;27.20;;;;;;482734;247;960;-69
2021/01/24 03:34:59;;;;;;;;;;;21.70;27.20;;;;;;482750;247;1135;-68
2021/01/24 03:37:00;;;;;;;;;;;21.70;27.20;;;;;;482737;247;1328;-68
2021/01/24 03:39:01;;;;;;;;;;;21.80;27.20;;;;;;482755;247;1030;-68
2021/01/24 03:41:03;;;;;;;;;;;21.80;27.10;;;;;;482645;247;1152;-68
2021/01/24 03:43:04;;;;;;;;;;;21.80;27.10;;;;;;482662;247;1159;-68
2021/01/24 03:45:05;;;;;;;;;;;21.80;27.10;;;;;;482656;247;1199;-68
2021/01/24 03:47:06;;;;;;;;;;;21.70;27.10;;;;;;482669;247;1495;-68
2021/01/24 03:49:08;;;;;;;;;;;21.80;27.10;;;;;;482742;247;1193;-69
2021/01/24 03:51:09;;;;;;;;;;;21.80;27.10;;;;;;482728;247;2175;-68
2021/01/24 03:53:10;;;;;;;;;;;21.70;27.10;;;;;;482706;247;1147;-69
2021/01/24 03:55:11;;;;;;;;;;;21.80;27.10;;;;;;482746;247;1118;-68
2021/01/24 03:57:13;;;;;;;;;;;21.70;27.10;;;;;;482771;247;1260;-69
2021/01/24 03:59:14;;;;;;;;;;;21.80;27.10;;;;;;482762;247;941;-68
2021/01/24 04:01:15;;;;;;;;;;;21.80;27.10;;;;;;482752;247;1071;-68
2021/01/24 04:03:17;;;;;;;;;;;21.70;27.00;;;;;;482710;247;1049;-68
2021/01/24 04:05:18;;;;;;;;;;;21.80;27.10;;;;;;482737;247;1062;-68
2021/01/24 04:07:19;;;;;;;;;;;21.80;27.10;;;;;;482687;247;1137;-70
2021/01/24 04:09:20;;;;;;;;;;;21.70;27.10;;;;;;482728;247;1229;-68
2021/01/24 04:11:22;;;;;;;;;;;21.70;27.10;;;;;;482744;247;2145;-69
2021/01/24 04:13:23;;;;;;;;;;;21.70;27.10;;;;;;482724;247;1157;-68
2021/01/24 04:15:24;;;;;;;;;;;21.60;27.10;;;;;;482805;244;1095;-68
2021/01/24 04:17:25;;;;;;;;;;;21.60;27.10;;;;;;482729;247;1229;-68
2021/01/24 04:19:27;;;;;;;;;;;21.70;27.20;;;;;;482707;247;1101;-68
2021/01/24 04:21:29;;;;;;;;;;;21.60;27.10;;;;;;482686;247;963;-68
2021/01/24 04:23:29;;;;;;;;;;;21.60;27.10;;;;;;482694;247;2268;-69
2021/01/24 04:25:31;;;;;;;;;;;21.60;27.10;;;;;;482707;247;1097;-68
2021/01/24 04:27:32;;;;;;;;;;;21.60;27.20;;;;;;482760;247;1252;-68
2021/01/24 04:29:33;;;;;;;;;;;21.60;27.20;;;;;;482683;244;1242;-68
2021/01/24 04:31:34;;;;;;;;;;;21.50;27.20;;;;;;482730;247;2204;-68
2021/01/24 04:33:36;;;;;;;;;;;21.50;27.20;;;;;;482773;247;1173;-68
2021/01/24 04:35:37;;;;;;;;;;;21.50;27.20;;;;;;482698;247;1197;-69
2021/01/24 04:37:38;;;;;;;;;;;21.50;27.30;;;;;;482752;247;1089;-69
2021/01/24 04:39:40;;;;;;;;;;;21.50;27.30;;;;;;482795;247;1100;-68
2021/01/24 04:41:41;;;;;;;;;;;21.50;27.30;;;;;;482738;247;1210;-68
2021/01/24 04:43:42;;;;;;;;;;;21.40;27.20;;;;;;482718;247;916;-68
2021/01/24 04:45:43;;;;;;;;;;;21.40;27.30;;;;;;482747;247;1119;-68
2021/01/24 04:47:45;;;;;;;;;;;21.40;27.30;;;;;;482814;247;1519;-68
2021/01/24 04:49:46;;;;;;;;;;;21.40;27.30;;;;;;482747;247;1118;-68
2021/01/24 04:51:47;;;;;;;;;;;21.40;27.30;;;;;;482685;247;2138;-69
2021/01/24 04:53:48;;;;;;;;;;;21.40;27.30;;;;;;482721;247;1200;-68
2021/01/24 04:55:50;;;;;;;;;;;21.30;27.30;;;;;;482795;247;1139;-68
2021/01/24 04:57:51;;;;;;;;;;;21.30;27.30;;;;;;482776;247;1294;-68
2021/01/24 04:59:52;;;;;;;;;;;21.30;27.30;;;;;;482715;247;1234;-68
2021/01/24 05:01:53;;;;;;;;;;;21.30;27.30;;;;;;482702;247;1588;-68
2021/01/24 05:03:55;;;;;;;;;;;21.30;27.30;;;;;;482708;247;1264;-68
2021/01/24 05:05:58;;;;;;;;;;;21.20;27.30;;;;;;482779;247;1298;-68
2021/01/24 05:07:59;;;;;;;;;;;21.20;27.30;;;;;;482796;244;1143;-68
2021/01/24 05:10:01;;;;;;;;;;;21.30;27.30;;;;;;482760;247;1090;-69
2021/01/24 05:12:02;;;;;;;;;;;21.20;27.30;;;;;;482730;247;2192;-68
2021/01/24 05:14:03;;;;;;;;;;;21.20;27.30;;;;;;482782;247;1162;-68
2021/01/24 05:16:05;;;;;;;;;;;21.20;27.30;;;;;;482708;247;1254;-69
2021/01/24 05:18:06;;;;;;;;;;;21.20;27.30;;;;;;482731;247;1101;-68
2021/01/24 05:20:07;;;;;;;;;;;21.20;27.30;;;;;;482726;247;1264;-68
2021/01/24 05:22:08;;;;;;;;;;;21.10;27.30;;;;;;482791;247;1221;-68
2021/01/24 05:24:10;;;;;;;;;;;21.20;27.30;;;;;;482805;247;1122;-69
2021/01/24 05:26:11;;;;;;;;;;;21.20;27.30;;;;;;482738;247;951;-68
2021/01/24 05:28:12;;;;;;;;;;;21.10;27.30;;;;;;482726;247;1224;-68
2021/01/24 05:30:14;;;;;;;;;;;21.20;27.30;;;;;;482775;247;981;-68
2021/01/24 05:32:15;;;;;;;;;;;21.10;27.20;;;;;;482718;247;2197;-68
2021/01/24 05:34:17;;;;;;;;;;;21.10;27.20;;;;;;482759;247;1047;-69
2021/01/24 05:36:18;;;;;;;;;;;21.10;27.20;;;;;;482801;247;947;-68
2021/01/24 05:38:19;;;;;;;;;;;21.10;27.20;;;;;;482655;247;1117;-68
2021/01/24 05:40:20;;;;;;;;;;;21.10;27.20;;;;;;482603;247;996;-68
2021/01/24 05:42:21;;;;;;;;;;;21.10;27.20;;;;;;482699;247;1342;-68
2021/01/24 05:44:23;;;;;;;;;;;21.10;27.20;;;;;;482779;247;1026;-68
2021/01/24 05:46:24;;;;;;;;;;;21.10;27.20;;;;;;482698;247;1046;-68
2021/01/24 05:48:25;;;;;;;;;;;21.10;27.20;;;;;;482785;247;941;-68
2021/01/24 05:50:26;;;;;;;;;;;21.10;27.20;;;;;;482729;247;950;-68
2021/01/24 05:52:28;;;;;;;;;;;21.10;27.20;;;;;;482744;247;2188;-69
2021/01/24 05:54:29;;;;;;;;;;;21.10;27.10;;;;;;482754;247;966;-68
2021/01/24 05:56:31;;;;;;;;;;;21.10;27.10;;;;;;482705;247;1161;-68
2021/01/24 05:58:31;;;;;;;;;;;21.10;27.10;;;;;;482781;247;1088;-68
2021/01/24 06:00:33;;;;;;;;;;;21.10;27.10;;;;;;482743;247;1165;-69
2021/01/24 06:02:34;;;;;;;;;;;21.10;27.10;;;;;;482741;247;984;-68
2021/01/24 06:04:36;;;;;;;;;;;21.10;27.10;;;;;;482749;247;1008;-68
2021/01/24 06:06:37;;;;;;;;;;;21.10;27.10;;;;;;482737;247;2122;-68
2021/01/24 06:08:38;;;;;;;;;;;21.10;27.10;;;;;;482738;247;1330;-68
2021/01/24 06:10:40;;;;;;;;;;;21.10;27.00;;;;;;482722;247;1111;-68
2021/01/24 06:12:40;;;;;;;;;;;21.10;27.00;;;;;;482690;247;2189;-68
2021/01/24 06:14:42;;;;;;;;;;;21.10;27.00;;;;;;482757;247;963;-68
2021/01/24 06:16:43;;;;;;;;;;;21.10;27.00;;;;;;482721;247;1144;-68
2021/01/24 06:18:44;;;;;;;;;;;21.10;27.00;;;;;;482825;247;1033;-69
2021/01/24 06:20:46;;;;;;;;;;;21.10;26.90;;;;;;482679;247;1227;-68
2021/01/24 06:22:47;;;;;;;;;;;21.10;26.90;;;;;;482718;247;1210;-68
2021/01/24 06:24:48;;;;;;;;;;;21.10;26.90;;;;;;482758;247;1465;-68
2021/01/24 06:26:49;;;;;;;;;;;21.10;26.90;;;;;;482739;244;1116;-68
2021/01/24 06:28:51;;;;;;;;;;;21.10;26.90;;;;;;482711;247;1172;-68
2021/01/24 06:30:52;;;;;;;;;;;21.10;26.90;;;;;;482737;247;996;-68
2021/01/24 06:32:53;;;;;;;;;;;21.10;26.90;;;;;;482688;247;2180;-68
2021/01/24 06:34:54;;;;;;;;;;;21.10;26.80;;;;;;482707;247;1019;-68
2021/01/24 06:36:56;;;;;;;;;;;21.10;26.80;;;;;;482658;247;1229;-68
2021/01/24 06:38:57;;;;;;;;;;;21.00;26.80;;;;;;482732;247;937;-68
2021/01/24 06:40:58;;;;;;;;;;;21.00;26.80;;;;;;482710;247;957;-68
2021/01/24 06:43:00;;;;;;;;;;;21.00;26.80;;;;;;482713;247;1093;-68
2021/01/24 06:45:01;;;;;;;;;;;21.00;26.70;;;;;;482725;247;1170;-68
2021/01/24 06:47:02;;;;;;;;;;;21.00;26.70;;;;;;482724;247;1070;-68
2021/01/24 06:49:03;;;;;;;;;;;21.00;26.70;;;;;;482681;247;1013;-68
2021/01/24 06:51:05;;;;;;;;;;;20.90;26.70;;;;;;482683;247;988;-68
2021/01/24 06:53:06;;;;;;;;;;;20.90;26.70;;;;;;482706;247;2098;-69
2021/01/24 06:55:07;;;;;;;;;;;20.90;26.70;;;;;;482704;247;1012;-69
2021/01/24 06:57:08;;;;;;;;;;;20.90;26.60;;;;;;482731;247;1008;-68
2021/01/24 06:59:10;;;;;;;;;;;20.90;26.60;;;;;;482755;247;1323;-68
2021/01/24 07:01:11;;;;;;;;;;;20.90;26.60;;;;;;482689;247;968;-69
2021/01/24 07:03:12;;;;;;;;;;;20.90;26.60;;;;;;482698;247;1085;-68
2021/01/24 07:05:14;;;;;;;;;;;21.00;26.60;;;;;;482699;247;975;-68
2021/01/24 07:07:15;;;;;;;;;;;21.00;26.50;;;;;;482693;247;1116;-68
2021/01/24 07:09:16;;;;;;;;;;;21.00;26.50;;;;;;482700;247;1055;-68
2021/01/24 07:11:17;;;;;;;;;;;20.90;26.50;;;;;;482719;247;1096;-68
2021/01/24 07:13:19;;;;;;;;;;;21.00;26.50;;;;;;482717;247;1319;-68
2021/01/24 07:15:20;;;;;;;;;;;21.00;26.50;;;;;;482747;247;1211;-68
2021/01/24 07:17:21;;;;;;;;;;;21.00;26.50;;;;;;482670;247;1139;-68
2021/01/24 07:19:22;;;;;;;;;;;21.00;26.50;;;;;;482754;247;1015;-68
2021/01/24 07:21:24;;;;;;;;;;;21.00;26.40;;;;;;482753;244;1239;-68
2021/01/24 07:23:25;;;;;;;;;;;21.00;26.40;;;;;;482738;247;1119;-68
2021/01/24 07:25:26;;;;;;;;;;;21.00;26.50;;;;;;482635;247;990;-68
2021/01/24 07:27:28;;;;;;;;;;;21.00;26.40;;;;;;482701;247;1053;-68
2021/01/24 07:29:29;;;;;;;;;;;21.00;26.40;;;;;;482819;247;1202;-69
2021/01/24 07:31:30;;;;;;;;;;;20.90;26.40;;;;;;482746;247;2145;-68
2021/01/24 07:33:32;;;;;;;;;;;21.00;26.50;;;;;;482666;247;1016;-69
2021/01/24 07:35:33;;;;;;;;;;;20.90;26.40;;;;;;482673;247;984;-69
2021/01/24 07:37:34;;;;;;;;;;;20.90;26.40;;;;;;482692;247;949;-68
2021/01/24 07:39:36;;;;;;;;;;;21.00;26.50;;;;;;482732;247;1004;-68
2021/01/24 07:41:37;;;;;;;;;;;21.00;26.50;;;;;;482637;247;952;-68
2021/01/24 07:43:38;;;;;;;;;;;21.00;26.50;;;;;;482637;247;942;-68
2021/01/24 07:45:39;;;;;;;;;;;21.00;26.40;;;;;;482768;247;1174;-68
2021/01/24 07:47:41;;;;;;;;;;;20.90;26.40;;;;;;482752;247;1169;-69
2021/01/24 07:49:42;;;;;;;;;;;21.00;26.40;;;;;;482720;247;988;-68
2021/01/24 07:51:44;;;;;;;;;;;21.00;26.40;;;;;;482682;247;2145;-68
2021/01/24 07:53:45;;;;;;;;;;;20.90;26.30;;;;;;482585;247;1066;-69
2021/01/24 07:55:46;;;;;;;;;;;20.90;26.30;;;;;;482754;247;1015;-68
2021/01/24 07:57:47;;;;;;;;;;;21.00;26.40;;;;;;482704;247;1220;-68
2021/01/24 07:59:49;;;;;;;;;;;20.90;26.30;;;;;;482761;247;1169;-68
2021/01/24 08:01:50;;;;;;;;;;;20.90;26.20;;;;;;482686;247;1218;-68
2021/01/24 08:03:51;;;;;;;;;;;20.90;26.20;;;;;;482723;247;1006;-68
2021/01/24 08:05:52;;;;;;;;;;;20.90;26.20;;;;;;482721;247;948;-68
2021/01/24 08:07:54;;;;;;;;;;;20.90;26.10;;;;;;482743;247;1047;-68
2021/01/24 08:09:55;;;;;;;;;;;21.00;26.10;;;;;;482693;247;1153;-68
2021/01/24 08:11:56;;;;;;;;;;;21.00;26.10;;;;;;482661;247;2192;-70
2021/01/24 08:13:58;;;;;;;;;;;21.00;26.00;;;;;;482652;247;1131;-68
2021/01/24 08:15:59;;;;;;;;;;;21.00;26.00;;;;;;482718;247;1218;-68
2021/01/24 08:18:00;;;;;;;;;;;21.00;26.00;;;;;;482688;247;974;-68
2021/01/24 08:20:01;;;;;;;;;;;20.90;25.90;;;;;;482683;247;1235;-68
2021/01/24 08:22:03;;;;;;;;;;;21.00;26.00;;;;;;482656;247;1008;-68
2021/01/24 08:24:04;;;;;;;;;;;20.90;25.90;;;;;;482737;247;1122;-68
2021/01/24 08:26:06;;;;;;;;;;;20.90;25.90;;;;;;482621;247;1160;-69
2021/01/24 08:28:07;;;;;;;;;;;21.00;25.90;;;;;;482637;247;1096;-68
2021/01/24 08:30:08;;;;;;;;;;;21.00;25.90;;;;;;482729;247;1322;-68
2021/01/24 08:32:10;;;;;;;;;;;20.90;25.90;;;;;;482651;247;2181;-68
2021/01/24 08:34:11;;;;;;;;;;;20.90;25.90;;;;;;482767;247;938;-69
2021/01/24 08:36:12;;;;;;;;;;;20.90;25.90;;;;;;482628;247;973;-68
2021/01/24 08:38:13;;;;;;;;;;;20.90;25.80;;;;;;482572;247;999;-68
2021/01/24 08:40:15;;;;;;;;;;;20.90;25.90;;;;;;482693;247;964;-68
2021/01/24 08:42:16;;;;;;;;;;;20.90;25.90;;;;;;482640;247;972;-68
2021/01/24 08:44:17;;;;;;;;;;;20.90;25.80;;;;;;482692;247;970;-68
2021/01/24 08:46:18;;;;;;;;;;;20.90;25.90;;;;;;482642;247;1206;-68
2021/01/24 08:48:21;;;;;;;;;;;20.90;25.80;;;;;;482685;247;1034;-68
2021/01/24 08:50:21;;;;;;;;;;;20.90;25.90;;;;;;482570;247;2140;-68
2021/01/24 08:52:22;;;;;;;;;;;20.90;25.80;;;;;;482686;247;2193;-68
2021/01/24 08:54:24;;;;;;;;;;;20.90;25.80;;;;;;482719;247;958;-68
2021/01/24 08:56:25;;;;;;;;;;;20.90;25.80;;;;;;482932;247;1131;-69
2021/01/24 08:58:26;;;;;;;;;;;20.90;25.80;;;;;;482683;247;1151;-68
2021/01/24 09:00:27;;;;;;;;;;;20.90;25.80;;;;;;482598;247;1191;-68
2021/01/24 09:02:29;;;;;;;;;;;20.90;25.80;;;;;;482627;247;1316;-68
2021/01/24 09:04:30;;;;;;;;;;;20.90;25.80;;;;;;482681;247;1046;-68
2021/01/24 09:06:31;;;;;;;;;;;20.90;25.80;;;;;;482741;247;1072;-68
2021/01/24 09:08:33;;;;;;;;;;;20.90;25.80;;;;;;482738;247;1110;-68
2021/01/24 09:10:34;;;;;;;;;;;20.90;25.80;;;;;;482771;247;1299;-68
2021/01/24 09:12:35;;;;;;;;;;;20.90;25.80;;;;;;482735;247;2145;-68
2021/01/24 09:14:36;;;;;;;;;;;20.90;25.80;;;;;;482756;247;1056;-68
2021/01/24 09:16:38;;;;;;;;;;;20.90;25.80;;;;;;482603;247;1232;-69
2021/01/24 09:18:39;;;;;;;;;;;20.90;25.70;;;;;;482704;247;1050;-68
2021/01/24 09:20:40;;;;;;;;;;;20.90;25.70;;;;;;482663;247;970;-68
2021/01/24 09:22:41;;;;;;;;;;;20.90;25.70;;;;;;482668;247;1021;-68
2021/01/24 09:24:43;;;;;;;;;;;20.90;25.70;;;;;;482721;247;957;-68
2021/01/24 09:26:44;;;;;;;;;;;20.90;25.60;;;;;;482757;247;1220;-68
2021/01/24 09:28:45;;;;;;;;;;;20.90;25.60;;;;;;482770;247;1082;-68
2021/01/24 09:30:47;;;;;;;;;;;20.90;25.60;;;;;;482725;247;1202;-68
2021/01/24 09:32:48;;;;;;;;;;;20.90;25.60;;;;;;482659;247;2184;-68
2021/01/24 09:34:49;;;;;;;;;;;20.90;25.50;;;;;;482789;247;1057;-68
2021/01/24 09:36:50;;;;;;;;;;;20.90;25.50;;;;;;482700;247;1207;-69
2021/01/24 09:38:52;;;;;;;;;;;20.90;25.50;;;;;;482701;247;997;-68
2021/01/24 09:40:53;;;;;;;;;;;20.90;25.50;;;;;;482645;247;1215;-68
2021/01/24 09:42:54;;;;;;;;;;;20.90;25.50;;;;;;482711;247;1120;-68
2021/01/24 09:44:55;;;;;;;;;;;20.90;25.50;;;;;;482614;247;1048;-68
2021/01/24 09:46:57;;;;;;;;;;;20.90;25.40;;;;;;482585;247;1342;-68
2021/01/24 09:48:58;;;;;;;;;;;20.90;25.40;;;;;;482665;247;1029;-69
2021/01/24 09:50:59;;;;;;;;;;;20.90;25.40;;;;;;482682;247;1151;-69
2021/01/24 09:53:01;;;;;;;;;;;20.90;25.30;;;;;;482735;247;2129;-69
2021/01/24 09:55:02;;;;;;;;;;;20.90;25.30;;;;;;482678;247;1095;-68
2021/01/24 09:57:03;;;;;;;;;;;20.90;25.20;;;;;;482747;247;1091;-68
2021/01/24 09:59:04;;;;;;;;;;;21.00;25.20;;;;;;482709;247;987;-68
2021/01/24 10:01:06;;;;;;;;;;;21.00;25.20;;;;;;482628;247;1295;-68
2021/01/24 10:03:07;;;;;;;;;;;20.90;25.20;;;;;;482678;247;1091;-68
2021/01/24 10:05:08;;;;;;;;;;;21.00;25.20;;;;;;482638;247;1155;-70
2021/01/24 10:07:10;;;;;;;;;;;21.00;25.10;;;;;;482636;247;1134;-68
2021/01/24 10:09:11;;;;;;;;;;;21.00;25.10;;;;;;482651;247;1149;-68
2021/01/24 10:11:12;;;;;;;;;;;21.00;25.00;;;;;;482559;247;1360;-68
2021/01/24 10:13:13;;;;;;;;;;;21.00;25.00;;;;;;482768;247;2133;-68
2021/01/24 10:15:15;;;;;;;;;;;21.00;25.00;;;;;;482641;247;992;-70
2021/01/24 10:17:16;;;;;;;;;;;21.00;24.90;;;;;;482640;247;1195;-68
2021/01/24 10:19:17;;;;;;;;;;;21.00;24.90;;;;;;482668;247;1151;-69
2021/01/24 10:21:19;;;;;;;;;;;21.00;24.90;;;;;;482642;247;1336;-68
2021/01/24 10:23:21;;;;;;;;;;;21.00;24.80;;;;;;482778;247;1031;-68
2021/01/24 10:25:22;;;;;;;;;;;21.00;24.80;;;;;;482623;245;2140;-68
2021/01/24 10:27:23;;;;;;;;;;;21.00;24.70;;;;;;482706;247;1130;-68
2021/01/24 10:29:27;;;;;;;;;;;21.00;24.70;;;;;;482678;247;986;-68
2021/01/24 10:31:26;;;;;;;;;;;21.10;24.70;;;;;;482520;244;2222;-68
2021/01/24 10:33:28;;;;;;;;;;;21.00;24.60;;;;;;482716;247;2174;-68
2021/01/24 10:35:29;;;;;;;;;;;21.10;24.70;;;;;;482629;245;1242;-69
2021/01/24 10:37:30;;;;;;;;;;;21.10;24.60;;;;;;482636;247;942;-68
2021/01/24 10:39:31;;;;;;;;;;;21.10;24.60;;;;;;482688;247;1097;-68
2021/01/24 10:41:33;;;;;;;;;;;21.10;24.50;;;;;;482598;247;971;-68
2021/01/24 10:43:34;;;;;;;;;;;21.10;24.50;;;;;;482660;247;998;-68
2021/01/24 10:45:35;;;;;;;;;;;21.20;24.50;;;;;;482727;247;1484;-68
2021/01/24 10:47:36;;;;;;;;;;;21.10;24.50;;;;;;482663;247;1120;-68
2021/01/24 10:49:38;;;;;;;;;;;21.10;24.40;;;;;;482716;247;966;-68
2021/01/24 10:51:39;;;;;;;;;;;21.20;24.40;;;;;;482750;245;1346;-68
2021/01/24 10:53:40;;;;;;;;;;;21.20;24.40;;;;;;482580;247;2137;-68
2021/01/24 10:55:42;;;;;;;;;;;21.20;24.40;;;;;;482681;247;1106;-68
2021/01/24 10:57:43;;;;;;;;;;;21.10;24.40;;;;;;482641;247;2167;-68
2021/01/24 10:59:44;;;;;;;;;;;21.20;24.40;;;;;;482738;247;1016;-68
2021/01/24 11:01:45;;;;;;;;;;;21.20;24.40;;;;;;482647;245;1177;-68
2021/01/24 11:03:47;;;;;;;;;;;21.20;24.30;;;;;;482755;247;966;-68
2021/01/24 11:05:48;;;;;;;;;;;21.20;24.30;;;;;;482670;247;966;-68
2021/01/24 11:07:49;;;;;;;;;;;21.20;24.30;;;;;;482701;247;975;-68
2021/01/24 11:09:50;;;;;;;;;;;21.20;24.20;;;;;;482724;247;972;-68
2021/01/24 11:11:52;;;;;;;;;;;21.20;24.20;;;;;;482634;247;992;-69
2021/01/24 11:13:53;;;;;;;;;;;21.20;24.20;;;;;;482778;247;2146;-68
2021/01/24 11:15:54;;;;;;;;;;;21.20;24.20;;;;;;482770;247;1199;-68
2021/01/24 11:17:56;;;;;;;;;;;21.20;24.10;;;;;;482715;247;1331;-68
2021/01/24 11:19:57;;;;;;;;;;;21.30;24.10;;;;;;482712;247;1195;-69
2021/01/24 11:21:59;;;;;;;;;;;21.20;24.10;;;;;;482614;247;1254;-68
2021/01/24 11:24:00;;;;;;;;;;;21.30;24.10;;;;;;482729;247;1071;-69
2021/01/24 11:26:02;;;;;;;;;;;21.30;24.10;;;;;;482716;247;1217;-68
2021/01/24 11:28:03;;;;;;;;;;;21.30;24.00;;;;;;482699;247;1283;-69
2021/01/24 11:30:04;;;;;;;;;;;21.30;24.00;;;;;;482675;247;1195;-68
2021/01/24 11:32:05;;;;;;;;;;;21.30;23.90;;;;;;482628;247;1301;-68
2021/01/24 11:34:07;;;;;;;;;;;21.40;23.90;;;;;;482688;247;2133;-68
2021/01/24 11:36:08;;;;;;;;;;;21.40;23.90;;;;;;482688;247;1284;-68
2021/01/24 11:38:10;;;;;;;;;;;21.50;23.80;;;;;;482713;247;1230;-68
2021/01/24 11:40:11;;;;;;;;;;;21.50;23.80;;;;;;482634;247;1076;-68
2021/01/24 11:42:12;;;;;;;;;;;21.50;23.80;;;;;;482714;247;1111;-68
2021/01/24 11:44:13;;;;;;;;;;;21.50;23.80;;;;;;482742;247;1183;-68
2021/01/24 11:46:15;;;;;;;;;;;21.50;23.70;;;;;;482639;247;1158;-68
2021/01/24 11:48:16;;;;;;;;;;;21.50;23.70;;;;;;482704;247;1286;-68
2021/01/24 11:50:17;;;;;;;;;;;21.60;23.70;;;;;;482638;247;996;-69
2021/01/24 11:52:18;;;;;;;;;;;21.50;23.70;;;;;;482625;247;1087;-69
2021/01/24 11:54:20;;;;;;;;;;;21.60;23.70;;;;;;482607;244;2181;-68
2021/01/24 11:56:21;;;;;;;;;;;21.60;23.60;;;;;;482819;247;1190;-68
2021/01/24 11:58:22;;;;;;;;;;;21.60;23.60;;;;;;482761;247;1213;-68